sensor_id;sensor_type;location;lat;lon;timestamp;P1;durP1;ratioP1;P2;durP2;ratioP2
24663;SDS011;12791;50.992;13.788;2022-10-16T03:02:00;8.77;;;7.90;;
24663;SDS011;12791;50.992;13.788;2022-10-16T03:04:27;8.90;;;8.10;;
24663;SDS011;12791;50.992;13.788;2022-10-16T03:06:53;7.97;;;7.25;;
24663;SDS011;12791;50.992;13.788;2022-10-16T03:09:20;9.18;;;8.35;;
24663;SDS011;12791;50.992;13.788;2022-10-16T03:11:47;9.57;;;8.65;;
24663;SDS011;12791;50.992;13.788;2022-10-16T03:14:14;11.20;;;10.20;;
24663;SDS011;12791;50.992;13.788;2022-10-16T03:16:40;13.65;;;12.25;;
24663;SDS011;12791;50.992;13.788;2022-10-16T03:19:08;12.60;;;11.40;;
24663;SDS011;12791;50.992;13.788;2022-10-16T03:21:35;12.50;;;11.30;;
24663;SDS011;12791;50.992;13.788;2022-10-16T03:24:02;14.25;;;12.32;;
24663;SDS011;12791;50.992;13.788;2022-10-16T03:26:29;15.43;;;13.55;;
24663;SDS011;12791;50.992;13.788;2022-10-16T03:28:56;15.23;;;13.70;;
24663;SDS011;12791;50.992;13.788;2022-10-16T03:31:23;15.65;;;14.13;;
24663;SDS011;12791;50.992;13.788;2022-10-16T03:33:49;15.48;;;13.85;;
24663;SDS011;12791;50.992;13.788;2022-10-16T03:36:17;13.13;;;11.93;;
24663;SDS011;12791;50.992;13.788;2022-10-16T03:38:44;13.77;;;12.38;;
24663;SDS011;12791;50.992;13.788;2022-10-16T03:41:11;13.23;;;11.75;;
24663;SDS011;12791;50.992;13.788;2022-10-16T03:43:37;14.18;;;12.65;;
24663;SDS011;12791;50.992;13.788;2022-10-16T03:46:04;13.88;;;12.50;;
24663;SDS011;12791;50.992;13.788;2022-10-16T03:48:31;12.57;;;11.38;;
24663;SDS011;12791;50.992;13.788;2022-10-16T03:50:58;11.63;;;10.50;;
24663;SDS011;12791;50.992;13.788;2022-10-16T03:53:26;11.10;;;10.18;;
24663;SDS011;12791;50.992;13.788;2022-10-16T03:55:53;11.82;;;10.73;;
24663;SDS011;12791;50.992;13.788;2022-10-16T03:58:20;12.18;;;10.98;;
24663;SDS011;12791;50.992;13.788;2022-10-16T04:00:46;11.35;;;10.35;;
24663;SDS011;12791;50.992;13.788;2022-10-16T04:03:13;13.35;;;10.52;;
24663;SDS011;12791;50.992;13.788;2022-10-16T04:05:40;11.25;;;10.25;;
24663;SDS011;12791;50.992;13.788;2022-10-16T04:08:07;11.90;;;10.77;;
24663;SDS011;12791;50.992;13.788;2022-10-16T04:10:35;12.55;;;11.32;;
24663;SDS011;12791;50.992;13.788;2022-10-16T04:13:02;11.70;;;10.50;;
24663;SDS011;12791;50.992;13.788;2022-10-16T04:15:28;12.48;;;11.18;;
24663;SDS011;12791;50.992;13.788;2022-10-16T04:17:55;10.52;;;9.48;;
24663;SDS011;12791;50.992;13.788;2022-10-16T04:20:22;10.75;;;9.75;;
24663;SDS011;12791;50.992;13.788;2022-10-16T04:22:48;9.88;;;8.98;;
24663;SDS011;12791;50.992;13.788;2022-10-16T04:25:15;9.98;;;9.00;;
24663;SDS011;12791;50.992;13.788;2022-10-16T04:27:43;10.82;;;9.80;;
24663;SDS011;12791;50.992;13.788;2022-10-16T04:30:10;10.02;;;9.13;;
24663;SDS011;12791;50.992;13.788;2022-10-16T04:32:37;9.80;;;8.95;;
24663;SDS011;12791;50.992;13.788;2022-10-16T04:35:04;10.20;;;9.30;;
24663;SDS011;12791;50.992;13.788;2022-10-16T04:37:31;10.95;;;9.77;;
24663;SDS011;12791;50.992;13.788;2022-10-16T04:39:57;10.50;;;9.60;;
24663;SDS011;12791;50.992;13.788;2022-10-16T04:42:24;10.88;;;9.88;;
24663;SDS011;12791;50.992;13.788;2022-10-16T04:44:52;9.88;;;9.07;;
24663;SDS011;12791;50.992;13.788;2022-10-16T04:47:19;10.45;;;9.55;;
24663;SDS011;12791;50.992;13.788;2022-10-16T04:49:45;10.95;;;9.85;;
24663;SDS011;12791;50.992;13.788;2022-10-16T04:52:12;10.15;;;9.07;;
24663;SDS011;12791;50.992;13.788;2022-10-16T04:54:39;11.15;;;10.02;;
24663;SDS011;12791;50.992;13.788;2022-10-16T04:57:06;10.80;;;9.75;;
24663;SDS011;12791;50.992;13.788;2022-10-16T04:59:32;10.02;;;9.13;;
24663;SDS011;12791;50.992;13.788;2022-10-16T05:02:00;9.77;;;8.85;;
24663;SDS011;12791;50.992;13.788;2022-10-16T05:04:27;10.23;;;9.23;;
24663;SDS011;12791;50.992;13.788;2022-10-16T05:06:54;10.35;;;9.45;;
24663;SDS011;12791;50.992;13.788;2022-10-16T05:09:20;10.57;;;9.57;;
24663;SDS011;12791;50.992;13.788;2022-10-16T05:11:47;9.75;;;8.93;;
24663;SDS011;12791;50.992;13.788;2022-10-16T05:14:14;11.88;;;9.80;;
24663;SDS011;12791;50.992;13.788;2022-10-16T05:16:41;10.30;;;9.27;;
24663;SDS011;12791;50.992;13.788;2022-10-16T05:19:09;10.65;;;9.55;;
24663;SDS011;12791;50.992;13.788;2022-10-16T05:21:36;10.27;;;9.38;;
24663;SDS011;12791;50.992;13.788;2022-10-16T05:24:02;11.98;;;9.80;;
24663;SDS011;12791;50.992;13.788;2022-10-16T05:26:29;11.65;;;10.57;;
24663;SDS011;12791;50.992;13.788;2022-10-16T05:28:56;11.52;;;10.55;;
24663;SDS011;12791;50.992;13.788;2022-10-16T05:31:22;11.05;;;9.98;;
24663;SDS011;12791;50.992;13.788;2022-10-16T05:33:49;10.65;;;9.65;;
24663;SDS011;12791;50.992;13.788;2022-10-16T05:36:17;10.68;;;9.70;;
24663;SDS011;12791;50.992;13.788;2022-10-16T05:38:44;10.13;;;9.20;;
24663;SDS011;12791;50.992;13.788;2022-10-16T05:41:10;10.20;;;9.30;;
24663;SDS011;12791;50.992;13.788;2022-10-16T05:43:37;10.25;;;9.25;;
24663;SDS011;12791;50.992;13.788;2022-10-16T05:46:04;10.10;;;9.18;;
24663;SDS011;12791;50.992;13.788;2022-10-16T05:48:31;9.98;;;9.05;;
24663;SDS011;12791;50.992;13.788;2022-10-16T05:50:59;10.15;;;9.20;;
24663;SDS011;12791;50.992;13.788;2022-10-16T05:53:28;11.68;;;8.90;;
24663;SDS011;12791;50.992;13.788;2022-10-16T05:55:55;9.07;;;8.38;;
24663;SDS011;12791;50.992;13.788;2022-10-16T05:58:23;8.57;;;7.63;;
24663;SDS011;12791;50.992;13.788;2022-10-16T06:00:54;9.00;;;8.20;;
24663;SDS011;12791;50.992;13.788;2022-10-16T06:03:21;8.85;;;8.15;;
24663;SDS011;12791;50.992;13.788;2022-10-16T06:05:48;8.43;;;7.80;;
24663;SDS011;12791;50.992;13.788;2022-10-16T06:08:15;9.07;;;8.27;;
24663;SDS011;12791;50.992;13.788;2022-10-16T06:10:43;8.63;;;7.93;;
24663;SDS011;12791;50.992;13.788;2022-10-16T06:13:11;8.40;;;7.70;;
24663;SDS011;12791;50.992;13.788;2022-10-16T06:15:37;8.73;;;7.93;;
24663;SDS011;12791;50.992;13.788;2022-10-16T06:18:06;8.82;;;8.05;;
24663;SDS011;12791;50.992;13.788;2022-10-16T06:20:33;8.73;;;7.93;;
24663;SDS011;12791;50.992;13.788;2022-10-16T06:23:00;9.32;;;8.52;;
24663;SDS011;12791;50.992;13.788;2022-10-16T06:25:26;9.43;;;8.52;;
24663;SDS011;12791;50.992;13.788;2022-10-16T06:27:55;8.40;;;7.70;;
24663;SDS011;12791;50.992;13.788;2022-10-16T06:30:21;9.40;;;8.52;;
24663;SDS011;12791;50.992;13.788;2022-10-16T06:32:48;9.45;;;8.55;;
24663;SDS011;12791;50.992;13.788;2022-10-16T06:35:15;10.15;;;9.15;;
24663;SDS011;12791;50.992;13.788;2022-10-16T06:37:41;10.65;;;9.68;;
24663;SDS011;12791;50.992;13.788;2022-10-16T06:40:08;10.23;;;9.35;;
24663;SDS011;12791;50.992;13.788;2022-10-16T06:42:35;10.95;;;9.90;;
24663;SDS011;12791;50.992;13.788;2022-10-16T06:45:03;13.70;;;12.40;;
24663;SDS011;12791;50.992;13.788;2022-10-16T06:47:30;14.10;;;12.80;;
24663;SDS011;12791;50.992;13.788;2022-10-16T06:49:57;14.50;;;13.10;;
24663;SDS011;12791;50.992;13.788;2022-10-16T06:52:24;13.80;;;12.60;;
24663;SDS011;12791;50.992;13.788;2022-10-16T06:54:50;13.27;;;11.77;;
24663;SDS011;12791;50.992;13.788;2022-10-16T06:57:17;13.98;;;12.68;;
24663;SDS011;12791;50.992;13.788;2022-10-16T06:59:44;13.68;;;12.30;;
24663;SDS011;12791;50.992;13.788;2022-10-16T07:02:12;12.00;;;11.00;;
24663;SDS011;12791;50.992;13.788;2022-10-16T07:04:38;14.57;;;11.30;;
24663;SDS011;12791;50.992;13.788;2022-10-16T07:07:05;13.02;;;11.82;;
24663;SDS011;12791;50.992;13.788;2022-10-16T07:09:32;11.45;;;10.45;;
24663;SDS011;12791;50.992;13.788;2022-10-16T07:11:58;11.93;;;10.65;;
24663;SDS011;12791;50.992;13.788;2022-10-16T07:14:25;12.60;;;11.40;;
24663;SDS011;12791;50.992;13.788;2022-10-16T07:16:52;13.80;;;12.57;;
24663;SDS011;12791;50.992;13.788;2022-10-16T07:19:20;14.82;;;13.20;;
24663;SDS011;12791;50.992;13.788;2022-10-16T07:21:47;15.32;;;13.93;;
24663;SDS011;12791;50.992;13.788;2022-10-16T07:24:14;16.58;;;14.98;;
24663;SDS011;12791;50.992;13.788;2022-10-16T07:26:42;17.80;;;16.20;;
24663;SDS011;12791;50.992;13.788;2022-10-16T07:29:11;17.45;;;15.77;;
24663;SDS011;12791;50.992;13.788;2022-10-16T07:31:39;18.02;;;16.42;;
24663;SDS011;12791;50.992;13.788;2022-10-16T07:34:06;19.35;;;17.55;;
24663;SDS011;12791;50.992;13.788;2022-10-16T07:36:34;19.52;;;17.70;;
24663;SDS011;12791;50.992;13.788;2022-10-16T07:39:01;19.52;;;17.63;;
24663;SDS011;12791;50.992;13.788;2022-10-16T07:41:28;19.42;;;17.73;;
24663;SDS011;12791;50.992;13.788;2022-10-16T07:43:55;20.17;;;18.38;;
24663;SDS011;12791;50.992;13.788;2022-10-16T07:46:24;21.02;;;19.08;;
24663;SDS011;12791;50.992;13.788;2022-10-16T07:48:52;21.15;;;19.05;;
24663;SDS011;12791;50.992;13.788;2022-10-16T07:51:19;21.27;;;19.33;;
24663;SDS011;12791;50.992;13.788;2022-10-16T07:53:49;20.38;;;18.55;;
24663;SDS011;12791;50.992;13.788;2022-10-16T07:56:16;21.55;;;19.58;;
24663;SDS011;12791;50.992;13.788;2022-10-16T07:58:44;21.77;;;19.65;;
24663;SDS011;12791;50.992;13.788;2022-10-16T08:01:13;21.60;;;19.55;;
24663;SDS011;12791;50.992;13.788;2022-10-16T08:03:41;20.65;;;18.65;;
24663;SDS011;12791;50.992;13.788;2022-10-16T08:06:11;20.23;;;18.27;;
24663;SDS011;12791;50.992;13.788;2022-10-16T08:08:38;20.05;;;18.15;;
24663;SDS011;12791;50.992;13.788;2022-10-16T08:11:06;21.02;;;19.23;;
24663;SDS011;12791;50.992;13.788;2022-10-16T08:13:33;21.80;;;19.70;;
24663;SDS011;12791;50.992;13.788;2022-10-16T08:16:00;21.80;;;19.77;;
24663;SDS011;12791;50.992;13.788;2022-10-16T08:18:28;22.33;;;20.17;;
24663;SDS011;12791;50.992;13.788;2022-10-16T08:20:55;23.58;;;21.27;;
24663;SDS011;12791;50.992;13.788;2022-10-16T08:23:23;21.80;;;19.90;;
24663;SDS011;12791;50.992;13.788;2022-10-16T08:25:50;23.17;;;21.08;;
24663;SDS011;12791;50.992;13.788;2022-10-16T08:28:19;22.30;;;20.35;;
24663;SDS011;12791;50.992;13.788;2022-10-16T08:30:46;21.98;;;20.08;;
24663;SDS011;12791;50.992;13.788;2022-10-16T08:33:13;21.55;;;19.52;;
24663;SDS011;12791;50.992;13.788;2022-10-16T08:35:40;20.83;;;18.90;;
24663;SDS011;12791;50.992;13.788;2022-10-16T08:38:06;21.80;;;19.80;;
24663;SDS011;12791;50.992;13.788;2022-10-16T08:40:34;21.45;;;19.52;;
24663;SDS011;12791;50.992;13.788;2022-10-16T08:43:09;18.60;;;16.98;;
24663;SDS011;12791;50.992;13.788;2022-10-16T08:45:58;22.23;;;20.20;;
24663;SDS011;12791;50.992;13.788;2022-10-16T08:48:35;20.88;;;19.00;;
24663;SDS011;12791;50.992;13.788;2022-10-16T08:51:08;21.25;;;19.35;;
24663;SDS011;12791;50.992;13.788;2022-10-16T08:53:39;21.75;;;19.85;;
24663;SDS011;12791;50.992;13.788;2022-10-16T08:56:10;22.02;;;19.95;;
24663;SDS011;12791;50.992;13.788;2022-10-16T08:58:38;21.42;;;19.60;;
24663;SDS011;12791;50.992;13.788;2022-10-16T09:01:10;20.40;;;18.38;;
24663;SDS011;12791;50.992;13.788;2022-10-16T09:03:45;19.75;;;17.95;;
24663;SDS011;12791;50.992;13.788;2022-10-16T09:11:31;21.15;;;19.15;;
24663;SDS011;12791;50.992;13.788;2022-10-16T09:14:06;21.27;;;19.27;;
24663;SDS011;12791;50.992;13.788;2022-10-16T09:16:48;20.52;;;18.83;;
24663;SDS011;12791;50.992;13.788;2022-10-16T09:19:20;21.13;;;19.25;;
24663;SDS011;12791;50.992;13.788;2022-10-16T09:21:52;20.83;;;18.92;;
24663;SDS011;12791;50.992;13.788;2022-10-16T09:24:20;19.80;;;18.10;;
24663;SDS011;12791;50.992;13.788;2022-10-16T09:26:49;19.67;;;18.05;;
24663;SDS011;12791;50.992;13.788;2022-10-16T09:29:18;18.23;;;16.55;;
24663;SDS011;12791;50.992;13.788;2022-10-16T09:31:46;17.30;;;15.80;;
24663;SDS011;12791;50.992;13.788;2022-10-16T09:34:16;15.70;;;14.40;;
24663;SDS011;12791;50.992;13.788;2022-10-16T09:36:55;15.18;;;13.95;;
24663;SDS011;12791;50.992;13.788;2022-10-16T09:39:23;17.83;;;16.23;;
24663;SDS011;12791;50.992;13.788;2022-10-16T09:41:50;18.08;;;16.58;;
24663;SDS011;12791;50.992;13.788;2022-10-16T09:44:21;16.85;;;15.45;;
24663;SDS011;12791;50.992;13.788;2022-10-16T09:47:00;17.17;;;15.75;;
24663;SDS011;12791;50.992;13.788;2022-10-16T09:49:27;18.05;;;16.52;;
24663;SDS011;12791;50.992;13.788;2022-10-16T09:52:02;18.20;;;16.55;;
24663;SDS011;12791;50.992;13.788;2022-10-16T09:54:30;17.17;;;15.68;;
24663;SDS011;12791;50.992;13.788;2022-10-16T09:57:03;19.40;;;17.75;;
24663;SDS011;12791;50.992;13.788;2022-10-16T09:59:32;19.48;;;17.67;;
24663;SDS011;12791;50.992;13.788;2022-10-16T10:02:01;19.70;;;17.90;;
24663;SDS011;12791;50.992;13.788;2022-10-16T10:04:37;18.83;;;17.13;;
24663;SDS011;12791;50.992;13.788;2022-10-16T10:07:06;18.60;;;16.98;;
24663;SDS011;12791;50.992;13.788;2022-10-16T10:09:44;18.45;;;16.70;;
24663;SDS011;12791;50.992;13.788;2022-10-16T10:12:19;19.67;;;17.95;;
24663;SDS011;12791;50.992;13.788;2022-10-16T10:14:49;18.83;;;17.23;;
24663;SDS011;12791;50.992;13.788;2022-10-16T10:17:17;18.63;;;16.95;;
24663;SDS011;12791;50.992;13.788;2022-10-16T10:19:47;19.00;;;17.40;;
24663;SDS011;12791;50.992;13.788;2022-10-16T10:22:19;17.60;;;16.10;;
24663;SDS011;12791;50.992;13.788;2022-10-16T10:24:56;18.55;;;16.60;;
24663;SDS011;12791;50.992;13.788;2022-10-16T10:27:28;17.65;;;16.15;;
24663;SDS011;12791;50.992;13.788;2022-10-16T10:30:08;17.67;;;16.08;;
24663;SDS011;12791;50.992;13.788;2022-10-16T10:32:43;16.08;;;14.57;;
24663;SDS011;12791;50.992;13.788;2022-10-16T10:35:21;11.95;;;11.05;;
24663;SDS011;12791;50.992;13.788;2022-10-16T10:38:02;8.77;;;8.10;;
24663;SDS011;12791;50.992;13.788;2022-10-16T10:40:40;7.65;;;7.05;;
24663;SDS011;12791;50.992;13.788;2022-10-16T10:43:17;6.70;;;6.20;;
24663;SDS011;12791;50.992;13.788;2022-10-16T10:45:57;4.68;;;4.38;;
24663;SDS011;12791;50.992;13.788;2022-10-16T10:48:33;2.28;;;2.17;;
24663;SDS011;12791;50.992;13.788;2022-10-16T10:51:14;1.00;;;0.90;;
24663;SDS011;12791;50.992;13.788;2022-10-16T10:53:51;1.52;;;0.70;;
24663;SDS011;12791;50.992;13.788;2022-10-16T10:56:30;0.45;;;0.40;;
24663;SDS011;12791;50.992;13.788;2022-10-16T10:59:14;0.30;;;0.30;;
24663;SDS011;12791;50.992;13.788;2022-10-16T11:02:00;0.63;;;0.32;;
24663;SDS011;12791;50.992;13.788;2022-10-16T11:04:41;1.10;;;0.30;;
24663;SDS011;12791;50.992;13.788;2022-10-16T11:07:19;0.30;;;0.30;;
24663;SDS011;12791;50.992;13.788;2022-10-16T11:09:51;0.30;;;0.30;;
24663;SDS011;12791;50.992;13.788;2022-10-16T11:12:21;0.75;;;0.30;;
24663;SDS011;12791;50.992;13.788;2022-10-16T11:14:53;0.40;;;0.30;;
24663;SDS011;12791;50.992;13.788;2022-10-16T11:17:26;0.65;;;0.40;;
24663;SDS011;12791;50.992;13.788;2022-10-16T11:19:58;0.30;;;0.30;;
24663;SDS011;12791;50.992;13.788;2022-10-16T11:22:32;0.30;;;0.30;;
24663;SDS011;12791;50.992;13.788;2022-10-16T11:25:04;0.45;;;0.30;;
24663;SDS011;12791;50.992;13.788;2022-10-16T11:27:41;0.30;;;0.30;;
24663;SDS011;12791;50.992;13.788;2022-10-16T11:30:14;0.30;;;0.30;;
24663;SDS011;12791;50.992;13.788;2022-10-16T11:32:50;1.65;;;0.40;;
24663;SDS011;12791;50.992;13.788;2022-10-16T11:35:30;0.50;;;0.30;;
24663;SDS011;12791;50.992;13.788;2022-10-16T11:38:04;0.30;;;0.30;;
24663;SDS011;12791;50.992;13.788;2022-10-16T11:40:38;0.30;;;0.30;;
24663;SDS011;12791;50.992;13.788;2022-10-16T11:43:10;0.20;;;0.20;;
24663;SDS011;12791;50.992;13.788;2022-10-16T11:45:42;0.20;;;0.20;;
24663;SDS011;12791;50.992;13.788;2022-10-16T11:48:15;0.30;;;0.30;;
24663;SDS011;12791;50.992;13.788;2022-10-16T11:50:48;0.30;;;0.30;;
24663;SDS011;12791;50.992;13.788;2022-10-16T11:53:21;0.35;;;0.30;;
24663;SDS011;12791;50.992;13.788;2022-10-16T11:55:57;0.45;;;0.20;;
24663;SDS011;12791;50.992;13.788;2022-10-16T11:58:25;0.20;;;0.20;;
24663;SDS011;12791;50.992;13.788;2022-10-16T12:03:28;0.20;;;0.20;;
24663;SDS011;12791;50.992;13.788;2022-10-16T12:06:05;1.20;;;0.30;;
24663;SDS011;12791;50.992;13.788;2022-10-16T12:08:39;0.30;;;0.30;;
24663;SDS011;12791;50.992;13.788;2022-10-16T12:11:07;0.30;;;0.30;;
24663;SDS011;12791;50.992;13.788;2022-10-16T12:13:36;0.45;;;0.30;;
24663;SDS011;12791;50.992;13.788;2022-10-16T12:16:05;0.28;;;0.28;;
24663;SDS011;12791;50.992;13.788;2022-10-16T12:18:47;0.30;;;0.30;;
24663;SDS011;12791;50.992;13.788;2022-10-16T12:21:15;0.30;;;0.30;;
24663;SDS011;12791;50.992;13.788;2022-10-16T12:23:47;0.47;;;0.20;;
24663;SDS011;12791;50.992;13.788;2022-10-16T12:26:23;0.20;;;0.20;;
24663;SDS011;12791;50.992;13.788;2022-10-16T12:28:51;0.30;;;0.30;;
24663;SDS011;12791;50.992;13.788;2022-10-16T12:31:17;0.30;;;0.30;;
24663;SDS011;12791;50.992;13.788;2022-10-16T12:33:53;0.20;;;0.20;;
24663;SDS011;12791;50.992;13.788;2022-10-16T12:36:27;0.25;;;0.25;;
24663;SDS011;12791;50.992;13.788;2022-10-16T12:38:56;1.90;;;0.20;;
24663;SDS011;12791;50.992;13.788;2022-10-16T12:41:26;0.40;;;0.30;;
24663;SDS011;12791;50.992;13.788;2022-10-16T12:43:54;0.20;;;0.20;;
24663;SDS011;12791;50.992;13.788;2022-10-16T12:46:22;0.30;;;0.30;;
24663;SDS011;12791;50.992;13.788;2022-10-16T12:49:22;0.20;;;0.20;;
24663;SDS011;12791;50.992;13.788;2022-10-16T12:51:55;0.20;;;0.20;;
24663;SDS011;12791;50.992;13.788;2022-10-16T12:54:24;0.73;;;0.20;;
24663;SDS011;12791;50.992;13.788;2022-10-16T12:56:58;0.20;;;0.20;;
24663;SDS011;12791;50.992;13.788;2022-10-16T12:59:41;0.30;;;0.20;;
24663;SDS011;12791;50.992;13.788;2022-10-16T13:02:20;1.35;;;0.35;;
24663;SDS011;12791;50.992;13.788;2022-10-16T13:05:14;0.20;;;0.20;;
24663;SDS011;12791;50.992;13.788;2022-10-16T13:07:55;0.98;;;0.30;;
24663;SDS011;12791;50.992;13.788;2022-10-16T13:10:30;0.90;;;0.30;;
24663;SDS011;12791;50.992;13.788;2022-10-16T13:13:06;0.75;;;0.30;;
24663;SDS011;12791;50.992;13.788;2022-10-16T13:15:48;0.90;;;0.30;;
24663;SDS011;12791;50.992;13.788;2022-10-16T13:18:25;0.20;;;0.20;;
24663;SDS011;12791;50.992;13.788;2022-10-16T13:21:01;0.30;;;0.30;;
24663;SDS011;12791;50.992;13.788;2022-10-16T13:23:40;0.20;;;0.20;;
24663;SDS011;12791;50.992;13.788;2022-10-16T13:26:14;0.95;;;0.20;;
24663;SDS011;12791;50.992;13.788;2022-10-16T13:28:48;1.05;;;0.30;;
24663;SDS011;12791;50.992;13.788;2022-10-16T13:31:17;1.33;;;0.20;;
24663;SDS011;12791;50.992;13.788;2022-10-16T13:33:46;0.30;;;0.30;;
24663;SDS011;12791;50.992;13.788;2022-10-16T13:36:20;0.30;;;0.30;;
24663;SDS011;12791;50.992;13.788;2022-10-16T13:38:47;0.75;;;0.25;;
24663;SDS011;12791;50.992;13.788;2022-10-16T13:41:15;0.30;;;0.30;;
24663;SDS011;12791;50.992;13.788;2022-10-16T13:43:45;0.30;;;0.30;;
24663;SDS011;12791;50.992;13.788;2022-10-16T13:46:16;0.30;;;0.30;;
24663;SDS011;12791;50.992;13.788;2022-10-16T13:48:44;0.30;;;0.30;;
24663;SDS011;12791;50.992;13.788;2022-10-16T13:51:12;0.28;;;0.28;;
24663;SDS011;12791;50.992;13.788;2022-10-16T13:53:41;0.30;;;0.30;;
24663;SDS011;12791;50.992;13.788;2022-10-16T13:56:10;0.28;;;0.28;;
24663;SDS011;12791;50.992;13.788;2022-10-16T13:58:38;0.20;;;0.20;;
24663;SDS011;12791;50.992;13.788;2022-10-16T14:01:05;0.20;;;0.20;;
24663;SDS011;12791;50.992;13.788;2022-10-16T14:03:44;0.20;;;0.20;;
24663;SDS011;12791;50.992;13.788;2022-10-16T14:06:13;0.30;;;0.30;;
24663;SDS011;12791;50.992;13.788;2022-10-16T14:08:44;0.30;;;0.30;;
24663;SDS011;12791;50.992;13.788;2022-10-16T14:11:19;0.47;;;0.40;;
24663;SDS011;12791;50.992;13.788;2022-10-16T14:13:48;0.30;;;0.30;;
24663;SDS011;12791;50.992;13.788;2022-10-16T14:16:16;0.30;;;0.30;;
24663;SDS011;12791;50.992;13.788;2022-10-16T14:18:46;0.32;;;0.30;;
24663;SDS011;12791;50.992;13.788;2022-10-16T14:21:20;0.25;;;0.25;;
24663;SDS011;12791;50.992;13.788;2022-10-16T14:23:48;0.35;;;0.35;;
24663;SDS011;12791;50.992;13.788;2022-10-16T14:26:16;0.73;;;0.40;;
24663;SDS011;12791;50.992;13.788;2022-10-16T14:28:45;0.50;;;0.50;;
24663;SDS011;12791;50.992;13.788;2022-10-16T14:31:22;1.17;;;0.40;;
24663;SDS011;12791;50.992;13.788;2022-10-16T14:33:52;0.50;;;0.50;;
24663;SDS011;12791;50.992;13.788;2022-10-16T14:36:19;0.43;;;0.40;;
24663;SDS011;12791;50.992;13.788;2022-10-16T14:38:49;0.40;;;0.40;;
24663;SDS011;12791;50.992;13.788;2022-10-16T14:41:23;0.45;;;0.45;;
24663;SDS011;12791;50.992;13.788;2022-10-16T14:43:50;0.40;;;0.40;;
24663;SDS011;12791;50.992;13.788;2022-10-16T14:46:19;0.68;;;0.40;;
24663;SDS011;12791;50.992;13.788;2022-10-16T14:48:51;0.75;;;0.40;;
24663;SDS011;12791;50.992;13.788;2022-10-16T14:51:23;1.33;;;0.50;;
24663;SDS011;12791;50.992;13.788;2022-10-16T14:53:51;0.38;;;0.38;;
24663;SDS011;12791;50.992;13.788;2022-10-16T14:56:18;1.25;;;0.40;;
24663;SDS011;12791;50.992;13.788;2022-10-16T14:58:47;0.50;;;0.50;;
24663;SDS011;12791;50.992;13.788;2022-10-16T15:01:14;1.50;;;0.52;;
24663;SDS011;12791;50.992;13.788;2022-10-16T15:03:40;0.57;;;0.50;;
24663;SDS011;12791;50.992;13.788;2022-10-16T15:06:08;0.60;;;0.60;;
24663;SDS011;12791;50.992;13.788;2022-10-16T15:08:36;0.75;;;0.65;;
24663;SDS011;12791;50.992;13.788;2022-10-16T15:11:04;0.55;;;0.55;;
24663;SDS011;12791;50.992;13.788;2022-10-16T15:13:32;0.60;;;0.60;;
24663;SDS011;12791;50.992;13.788;2022-10-16T15:15:58;0.60;;;0.60;;
24663;SDS011;12791;50.992;13.788;2022-10-16T15:18:25;0.73;;;0.63;;
24663;SDS011;12791;50.992;13.788;2022-10-16T15:20:52;0.95;;;0.70;;
24663;SDS011;12791;50.992;13.788;2022-10-16T15:23:21;0.52;;;0.52;;
24663;SDS011;12791;50.992;13.788;2022-10-16T15:25:49;0.93;;;0.68;;
24663;SDS011;12791;50.992;13.788;2022-10-16T15:28:18;0.50;;;0.50;;
24663;SDS011;12791;50.992;13.788;2022-10-16T15:30:46;1.08;;;0.65;;
24663;SDS011;12791;50.992;13.788;2022-10-16T15:33:15;0.57;;;0.55;;
24663;SDS011;12791;50.992;13.788;2022-10-16T15:35:45;1.33;;;0.77;;
24663;SDS011;12791;50.992;13.788;2022-10-16T15:38:14;0.75;;;0.60;;
24663;SDS011;12791;50.992;13.788;2022-10-16T15:40:41;0.80;;;0.80;;
24663;SDS011;12791;50.992;13.788;2022-10-16T15:43:08;0.90;;;0.90;;
24663;SDS011;12791;50.992;13.788;2022-10-16T15:45:37;1.13;;;0.88;;
24663;SDS011;12791;50.992;13.788;2022-10-16T15:48:05;1.20;;;1.02;;
24663;SDS011;12791;50.992;13.788;2022-10-16T15:50:31;0.90;;;0.90;;
24663;SDS011;12791;50.992;13.788;2022-10-16T15:52:58;1.38;;;0.88;;
24663;SDS011;12791;50.992;13.788;2022-10-16T15:55:25;2.03;;;1.10;;
24663;SDS011;12791;50.992;13.788;2022-10-16T15:57:52;2.67;;;1.20;;
24663;SDS011;12791;50.992;13.788;2022-10-16T16:00:19;0.82;;;0.82;;
24663;SDS011;12791;50.992;13.788;2022-10-16T16:02:50;3.33;;;0.98;;
24663;SDS011;12791;50.992;13.788;2022-10-16T16:05:19;1.08;;;0.82;;
24663;SDS011;12791;50.992;13.788;2022-10-16T16:07:47;0.80;;;0.80;;
24663;SDS011;12791;50.992;13.788;2022-10-16T16:10:14;1.08;;;0.90;;
24663;SDS011;12791;50.992;13.788;2022-10-16T16:12:41;0.90;;;0.80;;
24663;SDS011;12791;50.992;13.788;2022-10-16T16:15:08;0.60;;;0.60;;
24663;SDS011;12791;50.992;13.788;2022-10-16T16:17:36;0.90;;;0.80;;
24663;SDS011;12791;50.992;13.788;2022-10-16T16:20:05;0.80;;;0.60;;
24663;SDS011;12791;50.992;13.788;2022-10-16T16:22:32;0.70;;;0.60;;
24663;SDS011;12791;50.992;13.788;2022-10-16T16:24:59;0.88;;;0.77;;
24663;SDS011;12791;50.992;13.788;2022-10-16T16:27:26;0.80;;;0.80;;
24663;SDS011;12791;50.992;13.788;2022-10-16T16:29:54;0.70;;;0.70;;
24663;SDS011;12791;50.992;13.788;2022-10-16T16:32:21;0.90;;;0.90;;
24663;SDS011;12791;50.992;13.788;2022-10-16T16:34:48;1.10;;;0.90;;
24663;SDS011;12791;50.992;13.788;2022-10-16T16:37:16;1.00;;;0.90;;
24663;SDS011;12791;50.992;13.788;2022-10-16T16:39:43;1.00;;;0.90;;
24663;SDS011;12791;50.992;13.788;2022-10-16T16:42:09;2.00;;;1.20;;
24663;SDS011;12791;50.992;13.788;2022-10-16T16:44:36;0.75;;;0.75;;
24663;SDS011;12791;50.992;13.788;2022-10-16T16:47:03;2.03;;;1.13;;
24663;SDS011;12791;50.992;13.788;2022-10-16T16:49:30;3.50;;;1.23;;
24663;SDS011;12791;50.992;13.788;2022-10-16T16:51:58;2.15;;;1.15;;
24663;SDS011;12791;50.992;13.788;2022-10-16T16:54:26;1.60;;;1.13;;
24663;SDS011;12791;50.992;13.788;2022-10-16T16:56:52;1.60;;;1.35;;
24663;SDS011;12791;50.992;13.788;2022-10-16T16:59:19;1.88;;;1.50;;
24663;SDS011;12791;50.992;13.788;2022-10-16T17:01:47;1.48;;;1.38;;
24663;SDS011;12791;50.992;13.788;2022-10-16T17:04:15;2.40;;;1.30;;
24663;SDS011;12791;50.992;13.788;2022-10-16T17:06:41;2.30;;;1.92;;
24663;SDS011;12791;50.992;13.788;2022-10-16T17:09:08;1.90;;;1.40;;
24663;SDS011;12791;50.992;13.788;2022-10-16T17:11:39;1.73;;;1.63;;
24663;SDS011;12791;50.992;13.788;2022-10-16T17:14:08;2.15;;;1.95;;
24663;SDS011;12791;50.992;13.788;2022-10-16T17:16:35;2.88;;;1.95;;
24663;SDS011;12791;50.992;13.788;2022-10-16T17:19:04;1.80;;;1.70;;
24663;SDS011;12791;50.992;13.788;2022-10-16T17:21:32;3.00;;;2.13;;
24663;SDS011;12791;50.992;13.788;2022-10-16T17:24:00;2.50;;;2.30;;
24663;SDS011;12791;50.992;13.788;2022-10-16T17:26:27;2.53;;;2.33;;
24663;SDS011;12791;50.992;13.788;2022-10-16T17:28:56;3.28;;;2.15;;
24663;SDS011;12791;50.992;13.788;2022-10-16T17:31:25;1.65;;;1.55;;
24663;SDS011;12791;50.992;13.788;2022-10-16T17:33:53;1.35;;;1.27;;
24663;SDS011;12791;50.992;13.788;2022-10-16T17:36:20;1.10;;;1.10;;
24663;SDS011;12791;50.992;13.788;2022-10-16T17:38:47;1.08;;;1.08;;
24663;SDS011;12791;50.992;13.788;2022-10-16T17:41:15;1.02;;;0.98;;
24663;SDS011;12791;50.992;13.788;2022-10-16T17:43:43;1.23;;;1.05;;
24663;SDS011;12791;50.992;13.788;2022-10-16T17:46:12;0.75;;;0.73;;